Time;durP1;ratioP1;P1;durP2;ratioP2;P2;SDS_P1;SDS_P2;PMS_P1;PMS_P2;Temp;Humidity;BMP_temperature;BMP_pressure;BME280_temperature;BME280_humidity;BME280_pressure;Samples;Min_cycle;Max_cycle;Signal;HPM_P1;HPM_P2
2023/03/15 00:00:55;;;;;;;11.82;2.67;;;6.80;71.20;;;6.17;54.24;100073.16;5047484;28;20045;-83
2023/03/15 00:03:24;;;;;;;16.88;2.88;;;6.80;71.30;;;6.15;54.35;100076.00;5046520;28;20044;-83
2023/03/15 00:05:52;;;;;;;13.38;3.03;;;6.80;71.60;;;6.11;54.65;100087.97;5045545;28;20055;-82
2023/03/15 00:08:21;;;;;;;17.67;3.25;;;6.80;71.50;;;6.06;55.12;100084.28;5048750;28;20049;-83
2023/03/15 00:10:48;;;;;;;16.38;3.53;;;6.70;72.50;;;6.07;55.52;100092.00;5046308;28;20048;-83
2023/03/15 00:13:17;;;;;;;19.50;3.75;;;6.70;72.80;;;6.07;55.69;100092.00;5044174;28;20057;-82
2023/03/15 00:15:49;;;;;;;13.68;3.30;;;6.70;73.10;;;6.03;56.17;100098.69;5044612;28;20044;-82
2023/03/15 00:18:18;;;;;;;22.52;3.78;;;6.70;73.30;;;6.05;56.03;100094.03;5042831;28;20045;-82
2023/03/15 00:20:47;;;;;;;16.67;3.35;;;6.70;73.50;;;6.03;56.27;100101.34;5045274;28;20632;-82
2023/03/15 00:23:15;;;;;;;16.83;3.65;;;6.70;74.10;;;6.03;56.69;100103.16;5043347;28;20049;-83
2023/03/15 00:25:45;;;;;;;14.00;3.50;;;6.70;74.30;;;6.05;57.07;100101.97;5047172;28;20044;-83
2023/03/15 00:28:13;;;;;;;13.45;3.97;;;6.70;74.50;;;6.07;57.03;100109.72;5045855;28;20053;-85
2023/03/15 00:30:41;;;;;;;18.88;3.88;;;6.70;74.80;;;6.11;57.20;100117.09;5043344;28;20045;-83
2023/03/15 00:33:08;;;;;;;20.67;3.83;;;6.90;75.00;;;6.16;57.41;100122.63;5043249;28;20634;-83
2023/03/15 00:35:42;;;;;;;19.40;4.22;;;6.80;75.10;;;6.17;57.61;100126.91;5043004;28;20509;-83
2023/03/15 00:38:09;;;;;;;13.50;3.75;;;6.80;75.30;;;6.19;57.69;100116.13;5047418;28;20037;-83
2023/03/15 00:40:37;;;;;;;17.23;3.90;;;6.80;75.40;;;6.13;57.96;100122.19;5046019;28;20048;-84
2023/03/15 00:43:06;;;;;;;10.82;3.85;;;6.80;75.80;;;6.11;58.42;100126.88;5044930;28;20063;-84
2023/03/15 00:45:34;;;;;;;16.10;4.13;;;6.80;76.20;;;6.01;59.46;100129.84;5042255;28;20052;-83
2023/03/15 00:48:01;;;;;;;13.80;4.32;;;6.70;77.20;;;6.03;60.14;100130.47;5054521;28;20061;-84
2023/03/15 00:50:29;;;;;;;17.95;4.45;;;6.70;77.90;;;5.98;60.26;100138.16;5042395;28;20049;-83
2023/03/15 00:52:56;;;;;;;14.70;3.90;;;6.60;78.60;;;5.98;60.97;100138.16;5044152;28;20048;-83
2023/03/15 00:55:23;;;;;;;13.73;3.90;;;6.70;79.20;;;6.05;61.28;100139.03;5042330;28;20053;-83
2023/03/15 00:57:50;;;;;;;12.93;4.18;;;6.70;79.40;;;6.12;61.52;100137.25;5046178;28;20037;-83
2023/03/15 01:00:23;;;;;;;14.90;4.30;;;6.70;80.00;;;6.11;62.04;100143.56;5044567;28;20099;-83
2023/03/15 01:02:51;;;;;;;15.20;4.30;;;6.70;80.40;;;6.15;61.65;100146.66;5046747;28;20055;-84
2023/03/15 01:05:18;;;;;;;12.30;4.95;;;6.80;80.10;;;6.18;62.23;100155.03;5048030;28;20040;-84
2023/03/15 01:07:45;;;;;;;11.73;5.60;;;6.80;80.90;;;6.13;63.06;100157.44;5048647;28;20044;-83
2023/03/15 01:10:14;;;;;;;15.45;6.63;;;6.70;81.40;;;6.14;63.16;100150.31;5047195;28;20057;-83
2023/03/15 01:12:42;;;;;;;15.05;6.05;;;6.70;81.60;;;6.12;62.66;100154.97;5048145;28;20528;-83
2023/03/15 01:15:14;;;;;;;12.10;5.93;;;6.70;81.00;;;6.12;62.32;100154.97;5055106;28;20052;-83
2023/03/15 01:17:43;;;;;;;13.90;5.97;;;6.70;80.80;;;6.11;62.38;100159.47;5044953;28;20507;-83
2023/03/15 01:20:14;;;;;;;7.97;4.32;;;6.70;81.00;;;6.08;62.58;100157.19;5046920;28;20056;-83
2023/03/15 01:22:42;;;;;;;9.20;4.28;;;6.70;81.40;;;6.03;62.66;100161.41;5046572;28;20509;-84
2023/03/15 01:25:10;;;;;;;9.50;3.97;;;6.60;81.40;;;6.05;62.75;100157.56;5050058;28;20512;-83
2023/03/15 01:27:38;;;;;;;6.40;3.20;;;6.60;81.30;;;6.04;62.68;100163.84;5046186;28;20037;-83
2023/03/15 01:30:07;;;;;;;8.40;3.72;;;6.60;81.40;;;6.02;62.53;100154.47;5048801;28;20053;-84
2023/03/15 01:32:34;;;;;;;5.35;3.08;;;6.60;81.30;;;5.98;62.74;100167.25;5049245;28;20045;-84
2023/03/15 01:35:03;;;;;;;9.63;4.07;;;6.60;81.10;;;5.98;62.36;100167.25;5063035;28;20140;-84
2023/03/15 01:37:30;;;;;;;10.65;3.90;;;6.60;81.20;;;5.99;62.75;100176.03;5045367;28;20045;-84
2023/03/15 01:39:58;;;;;;;7.68;3.30;;;6.60;81.30;;;5.98;62.65;100169.91;5045578;28;20124;-84
2023/03/15 01:42:25;;;;;;;7.53;3.67;;;6.60;81.40;;;6.00;62.21;100175.00;5050667;28;20056;-83
2023/03/15 01:44:56;;;;;;;9.80;3.50;;;6.60;81.40;;;6.00;62.83;100165.25;5051211;28;20488;-84
2023/03/15 01:47:25;;;;;;;7.05;3.80;;;6.60;81.60;;;6.01;62.79;100168.72;5047159;28;20134;-84
2023/03/15 01:50:01;;;;;;;5.40;3.33;;;6.60;81.60;;;6.00;62.88;100172.34;5056885;28;20053;-83
2023/03/15 01:52:35;;;;;;;6.05;3.47;;;6.60;81.80;;;5.97;62.80;100172.75;5048064;28;20041;-83
2023/03/15 01:55:10;;;;;;;6.45;4.03;;;6.50;81.90;;;5.96;63.03;100165.81;5054014;28;20041;-84
2023/03/15 01:57:46;;;;;;;6.97;3.60;;;6.50;81.80;;;5.95;62.74;100162.34;5045197;23;20045;-84
2023/03/15 02:00:16;;;;;;;5.65;3.45;;;6.50;82.10;;;5.90;63.04;100162.06;5021091;28;20073;-87
2023/03/15 02:03:02;;;;;;;7.40;3.20;;;6.50;82.20;;;5.92;62.99;100162.72;5031413;28;20049;-84
2023/03/15 02:05:36;;;;;;;6.38;3.10;;;6.50;82.00;;;5.85;63.39;100175.03;5029343;28;20049;-85
2023/03/15 02:08:10;;;;;;;6.25;3.20;;;6.40;82.50;;;5.81;63.87;100179.09;5006596;28;20575;-85
2023/03/15 02:10:43;;;;;;;5.82;3.20;;;6.40;82.70;;;5.82;63.72;100181.53;5024760;28;20069;-85
2023/03/15 02:13:15;;;;;;;8.60;3.35;;;6.40;82.70;;;5.79;64.23;100181.06;5025357;28;20128;-84
2023/03/15 02:15:45;;;;;;;5.60;3.00;;;6.40;83.10;;;5.81;63.87;100185.19;5023484;28;20046;-84
2023/03/15 02:18:14;;;;;;;6.63;3.10;;;6.30;83.00;;;5.84;64.05;100194.56;5022445;28;20053;-84
2023/03/15 02:20:51;;;;;;;8.65;3.20;;;6.40;83.10;;;5.85;64.03;100190.91;5005972;28;20046;-84
2023/03/15 02:23:22;;;;;;;6.20;3.13;;;6.40;83.00;;;5.87;63.99;100188.91;5022847;28;20049;-85
2023/03/15 02:25:59;;;;;;;6.85;3.50;;;6.40;83.10;;;5.88;64.09;100188.72;5007570;28;20548;-84
2023/03/15 02:28:30;;;;;;;11.02;5.28;;;6.40;82.90;;;5.91;63.89;100191.03;5012301;28;20125;-84
2023/03/15 02:30:58;;;;;;;10.27;5.68;;;6.40;82.90;;;5.86;64.67;100187.28;5025499;28;20049;-84
2023/03/15 02:33:29;;;;;;;9.70;5.35;;;6.40;83.60;;;5.85;64.56;100191.72;5006868;28;20117;-84
2023/03/15 02:36:06;;;;;;;13.68;7.07;;;6.40;83.50;;;5.81;64.53;100195.78;5007793;28;20409;-84
2023/03/15 02:38:33;;;;;;;13.68;6.65;;;6.40;83.50;;;5.83;64.69;100192.94;5022930;28;20049;-84
2023/03/15 02:41:01;;;;;;;14.65;8.05;;;6.40;83.80;;;5.81;65.27;100193.13;5025713;28;20049;-86
2023/03/15 02:43:30;;;;;;;13.40;7.50;;;6.40;84.10;;;5.75;65.04;100216.84;5007736;28;20046;-84
2023/03/15 02:45:59;;;;;;;13.93;7.43;;;6.40;83.90;;;5.75;65.54;100217.66;5007265;28;20045;-85
2023/03/15 02:48:27;;;;;;;12.52;6.20;;;6.40;84.50;;;5.76;65.75;100210.53;5007770;28;20893;-84
2023/03/15 02:50:54;;;;;;;10.00;5.18;;;6.30;84.40;;;5.79;65.85;100218.13;5007390;28;20056;-84
2023/03/15 02:53:21;;;;;;;10.27;5.85;;;6.40;84.50;;;5.82;65.79;100215.13;5021583;28;20056;-84
2023/03/15 02:55:48;;;;;;;9.75;5.05;;;6.40;84.40;;;5.83;65.29;100214.09;5006508;28;20057;-84
2023/03/15 02:58:15;;;;;;;10.73;6.20;;;6.40;84.30;;;5.84;65.16;100223.69;5006573;28;20054;-84
2023/03/15 03:00:44;;;;;;;12.40;6.20;;;6.50;84.10;;;5.81;64.98;100221.41;5024947;28;20506;-84
2023/03/15 03:03:11;;;;;;;10.20;5.80;;;6.40;84.10;;;5.84;65.23;100221.03;5005195;28;20108;-84
2023/03/15 03:05:38;;;;;;;13.32;7.15;;;6.40;83.90;;;5.84;65.08;100216.56;5006813;28;20046;-84
2023/03/15 03:08:06;;;;;;;13.95;6.55;;;6.40;83.90;;;5.86;65.28;100224.31;5024414;28;20048;-84
2023/03/15 03:10:34;;;;;;;10.05;6.53;;;6.40;83.90;;;5.86;65.14;100226.97;5003394;28;20037;-84
2023/03/15 03:13:01;;;;;;;14.18;7.07;;;6.50;84.00;;;5.85;65.06;100220.00;5023194;28;20170;-84
2023/03/15 03:15:35;;;;;;;15.48;8.30;;;6.50;84.10;;;5.85;65.33;100228.78;5007561;28;20054;-83
2023/03/15 03:18:04;;;;;;;15.00;8.13;;;6.50;84.10;;;5.86;64.89;100229.63;5016803;28;20528;-84
2023/03/15 03:20:32;;;;;;;12.75;8.07;;;6.50;84.10;;;5.86;65.17;100248.97;5006224;28;20038;-83
2023/03/15 03:23:04;;;;;;;14.73;8.38;;;6.40;84.10;;;5.85;65.10;100249.13;5005891;28;20568;-84
2023/03/15 03:25:35;;;;;;;12.68;7.70;;;6.40;84.10;;;5.81;65.18;100253.19;5008711;28;20125;-86
2023/03/15 03:28:03;;;;;;;10.23;6.53;;;6.40;84.10;;;5.72;65.26;100254.28;5006824;28;20046;-84
2023/03/15 03:30:31;;;;;;;11.05;5.03;;;6.30;84.00;;;5.67;65.13;100262.78;5008085;28;20077;-84
2023/03/15 03:32:58;;;;;;;9.25;4.57;;;6.30;84.10;;;5.62;65.44;100271.25;5005629;28;20045;-84
2023/03/15 03:35:26;;;;;;;7.95;3.92;;;6.30;84.30;;;5.60;65.32;100270.59;5006878;28;20233;-84
2023/03/15 03:37:55;;;;;;;6.22;3.40;;;6.20;84.50;;;5.38;65.82;100279.47;5023534;28;20038;-86
2023/03/15 03:40:28;;;;;;;5.68;3.28;;;6.00;84.90;;;5.28;66.79;100279.75;5007815;28;20100;-84
2023/03/15 03:42:55;;;;;;;5.47;2.90;;;5.90;85.50;;;5.34;66.67;100289.59;5007971;28;20050;-84
2023/03/15 03:45:23;;;;;;;5.70;3.20;;;5.90;85.50;;;5.39;66.46;100278.47;5022544;28;20463;-83
2023/03/15 03:47:53;;;;;;;6.18;3.33;;;5.90;85.50;;;5.37;66.16;100283.94;5006314;28;20577;-84
2023/03/15 03:50:21;;;;;;;6.32;3.88;;;5.90;85.30;;;5.39;66.23;100291.69;5024073;28;20054;-84
2023/03/15 03:52:49;;;;;;;6.07;3.90;;;5.90;85.20;;;5.38;66.04;100297.97;5021838;28;20128;-84
2023/03/15 03:55:23;;;;;;;6.75;3.58;;;6.10;85.00;;;5.41;65.67;100294.97;5005165;28;20475;-84
2023/03/15 03:57:52;;;;;;;7.90;3.97;;;6.00;84.60;;;5.43;65.41;100293.78;5007612;28;20038;-84
2023/03/15 04:00:41;;;;;;;6.32;3.90;;;6.00;84.40;;;5.46;65.00;100297.88;5018389;28;20049;-84
2023/03/15 04:03:10;;;;;;;5.00;3.25;;;6.00;84.30;;;5.48;65.59;100306.47;5006393;28;20042;-84
2023/03/15 04:05:40;;;;;;;5.90;3.42;;;6.00;84.30;;;5.47;64.97;100314.59;5017754;28;20410;-84
2023/03/15 04:08:09;;;;;;;6.05;3.17;;;6.00;84.30;;;5.48;65.39;100314.41;5010885;28;20139;-84
2023/03/15 04:10:39;;;;;;;7.43;3.17;;;6.00;84.30;;;5.46;64.99;100318.22;5002884;28;20041;-84
2023/03/15 04:13:06;;;;;;;5.47;3.42;;;6.00;84.30;;;5.47;65.25;100322.53;5006874;28;20072;-84
2023/03/15 04:15:33;;;;;;;6.90;3.25;;;6.00;84.30;;;5.49;65.22;100325.78;5005739;28;20045;-84
2023/03/15 04:18:04;;;;;;;8.10;3.28;;;6.00;84.30;;;5.47;65.34;100330.47;5019981;28;20056;-84
2023/03/15 04:20:36;;;;;;;8.02;3.08;;;6.00;84.50;;;5.47;65.37;100323.34;5009258;28;20099;-84
2023/03/15 04:23:06;;;;;;;5.43;3.00;;;6.00;84.30;;;5.48;65.16;100329.44;5005721;28;20048;-84
2023/03/15 04:25:43;;;;;;;7.18;3.33;;;6.00;84.50;;;5.49;65.25;100331.91;5021020;28;20123;-84
2023/03/15 04:28:43;;;;;;;6.18;3.20;;;6.00;84.50;;;5.50;65.16;100336.19;5007898;28;20054;-84
2023/03/15 04:31:28;;;;;;;5.43;3.30;;;6.10;84.50;;;5.49;65.27;100337.19;5007209;28;20476;-84
2023/03/15 04:34:14;;;;;;;6.22;3.90;;;6.10;84.80;;;5.50;65.72;100336.19;5008667;28;20080;-84
2023/03/15 04:37:04;;;;;;;8.38;4.85;;;6.10;84.80;;;5.49;65.57;100337.19;5002511;28;20042;-84
2023/03/15 04:39:51;;;;;;;7.13;4.13;;;6.10;84.60;;;5.50;65.65;100341.47;5008520;28;20050;-84
2023/03/15 04:42:24;;;;;;;7.60;4.55;;;6.10;84.60;;;5.47;65.46;100347.16;5008394;28;20082;-84
2023/03/15 04:45:08;;;;;;;8.70;5.70;;;6.10;84.80;;;5.48;65.69;100353.25;4995635;28;20505;-84
2023/03/15 04:47:45;;;;;;;9.60;5.78;;;6.10;84.90;;;5.48;65.62;100351.44;5006024;28;20407;-84
2023/03/15 04:50:33;;;;;;;9.10;5.90;;;6.10;84.80;;;5.48;65.77;100356.72;5019494;28;20100;-84
2023/03/15 04:53:23;;;;;;;9.45;5.50;;;6.10;84.70;;;5.48;65.41;100353.25;4997527;28;20053;-83
2023/03/15 04:56:24;;;;;;;9.10;5.93;;;6.00;84.50;;;5.48;65.52;100346.13;5004969;28;20052;-84
2023/03/15 04:59:12;;;;;;;9.98;6.55;;;6.10;84.70;;;5.49;65.72;100341.66;5007800;28;20064;-83
2023/03/15 05:01:56;;;;;;;10.55;6.50;;;6.00;84.70;;;5.46;65.52;100356.06;5022337;28;20153;-83
2023/03/15 05:04:31;;;;;;;10.13;6.65;;;6.00;84.60;;;5.45;65.24;100353.59;5004482;28;20536;-79
2023/03/15 05:07:13;;;;;;;12.57;7.53;;;6.00;84.50;;;5.44;65.47;100355.44;5004185;28;20050;-82
2023/03/15 05:09:40;;;;;;;14.05;8.77;;;6.00;84.50;;;5.43;65.08;100349.31;5007229;28;20034;-83
2023/03/15 05:12:23;;;;;;;13.82;9.45;;;6.00;84.30;;;5.42;65.58;100362.72;5004130;28;20089;-80
2023/03/15 05:14:51;;;;;;;14.70;9.88;;;6.00;84.40;;;5.40;65.02;100370.81;5001000;28;20042;-79
2023/03/15 05:17:37;;;;;;;17.40;11.00;;;6.00;84.30;;;5.41;65.16;100379.59;5003331;28;20052;-79
2023/03/15 05:20:17;;;;;;;16.38;10.60;;;6.00;84.50;;;5.39;65.39;100377.13;5002774;28;20053;-79
2023/03/15 05:23:03;;;;;;;16.42;10.52;;;6.00;84.30;;;5.39;65.34;100386.88;5003762;28;20514;-80
2023/03/15 05:25:42;;;;;;;17.83;11.13;;;6.00;84.50;;;5.40;65.49;100394.63;5019872;28;20046;-80
2023/03/15 05:28:38;;;;;;;14.73;10.38;;;6.00;84.60;;;5.39;65.33;100408.03;4998517;28;20054;-80
2023/03/15 05:31:25;;;;;;;16.60;10.40;;;6.00;84.70;;;5.38;65.48;100406.41;5008459;28;20422;-81
2023/03/15 05:34:11;;;;;;;16.88;10.50;;;5.90;84.90;;;5.37;65.70;100407.41;5008226;28;20185;-83
2023/03/15 05:37:04;;;;;;;14.25;9.77;;;5.90;84.70;;;5.34;65.33;100413.88;5007234;28;20521;-86
2023/03/15 05:39:52;;;;;;;13.82;9.70;;;5.90;84.70;;;5.34;65.55;100415.69;5019421;28;20092;-80
2023/03/15 05:42:38;;;;;;;19.13;11.25;;;5.90;84.70;;;5.33;65.42;100425.44;5003681;28;20513;-80
2023/03/15 05:45:25;;;;;;;15.48;10.80;;;5.90;84.80;;;5.34;65.99;100432.38;4999435;28;20417;-82
2023/03/15 05:48:20;;;;;;;17.48;11.77;;;5.90;85.00;;;5.35;66.03;100435.84;4984439;28;20054;-83
2023/03/15 05:51:10;;;;;;;19.38;12.38;;;5.90;85.00;;;5.35;65.77;100438.47;5005618;28;20042;-82
2023/03/15 05:53:57;;;;;;;19.05;13.23;;;5.90;85.20;;;5.34;66.37;100447.41;5007951;28;20052;-83
2023/03/15 05:56:56;;;;;;;22.55;14.60;;;5.90;85.30;;;5.32;66.49;100450.25;5002159;28;20120;-83
2023/03/15 05:59:38;;;;;;;23.23;15.35;;;5.90;85.80;;;5.31;66.81;100458.34;5023492;28;20145;-82
2023/03/15 06:02:05;;;;;;;21.17;14.27;;;5.90;86.10;;;5.31;66.58;100466.28;5008024;28;20057;-83
2023/03/15 06:04:43;;;;;;;21.63;14.25;;;5.90;86.00;;;5.27;67.16;100473.75;5016731;28;20038;-83
2023/03/15 06:07:14;;;;;;;21.58;14.25;;;5.90;86.10;;;5.27;67.14;100478.19;5006094;28;20107;-83
2023/03/15 06:09:41;;;;;;;27.00;16.90;;;5.90;86.10;;;5.24;67.34;100479.38;5007068;28;20502;-83
2023/03/15 06:12:10;;;;;;;26.33;17.15;;;5.80;86.20;;;5.26;66.94;100481.84;5006259;28;20056;-83
2023/03/15 06:14:39;;;;;;;25.55;16.75;;;5.80;86.30;;;5.28;67.38;100485.16;5007508;28;20502;-83
2023/03/15 06:17:08;;;;;;;25.02;16.63;;;5.80;86.20;;;5.29;66.91;100481.50;5024852;28;20145;-83
2023/03/15 06:19:35;;;;;;;28.38;16.95;;;5.90;86.30;;;5.28;67.02;100485.16;5020460;28;20038;-84
2023/03/15 06:22:04;;;;;;;29.73;18.40;;;5.90;86.20;;;5.29;67.10;100486.78;5021085;28;20046;-83
2023/03/15 06:24:38;;;;;;;29.90;18.70;;;5.90;86.40;;;5.31;67.13;100495.34;5004185;28;20073;-84
2023/03/15 06:27:06;;;;;;;27.75;18.13;;;5.90;86.30;;;5.28;67.57;100490.44;5021154;28;20046;-84
2023/03/15 06:29:35;;;;;;;30.42;18.45;;;5.90;86.60;;;5.24;67.35;100489.97;5008203;28;20119;-84
2023/03/15 06:32:04;;;;;;;29.85;18.05;;;5.80;86.50;;;5.27;67.25;100504.63;5002848;28;20045;-84
2023/03/15 06:34:33;;;;;;;26.80;17.80;;;5.90;86.50;;;5.26;67.54;100497.72;5025005;28;20041;-84
2023/03/15 06:37:00;;;;;;;28.80;19.52;;;5.90;86.60;;;5.28;67.59;100501.03;5007104;28;20038;-84
2023/03/15 06:39:29;;;;;;;30.05;20.63;;;5.90;86.70;;;5.30;67.53;100507.75;5023484;28;20481;-84
2023/03/15 06:41:57;;;;;;;29.95;19.58;;;5.90;86.60;;;5.31;67.61;100513.88;5008149;28;20045;-84
2023/03/15 06:44:26;;;;;;;29.13;18.05;;;5.90;86.70;;;5.33;67.38;100509.25;5007582;28;20046;-83
2023/03/15 06:46:57;;;;;;;31.55;18.92;;;5.90;86.70;;;5.34;67.91;100517.00;5006425;28;20065;-84
2023/03/15 06:49:24;;;;;;;31.92;18.85;;;6.00;86.70;;;5.36;67.85;100522.09;5007814;28;20096;-83
2023/03/15 06:51:52;;;;;;;34.28;20.13;;;6.00;86.90;;;5.38;67.69;100525.41;5008147;28;20100;-84
2023/03/15 06:54:19;;;;;;;37.08;20.45;;;6.00;86.80;;;5.39;68.05;100529.69;5005878;28;20751;-84
2023/03/15 06:56:47;;;;;;;30.73;19.45;;;6.00;86.90;;;5.37;68.12;100531.69;5022881;28;20076;-84
2023/03/15 06:59:15;;;;;;;32.08;20.23;;;6.00;86.90;;;5.38;68.01;100534.16;5006171;28;20049;-83
2023/03/15 07:01:42;;;;;;;32.25;20.92;;;6.00;86.90;;;5.42;68.16;100532.00;5006662;28;20041;-83
2023/03/15 07:04:09;;;;;;;34.70;20.75;;;6.00;87.10;;;5.45;68.04;100530.81;5007703;28;20726;-84
2023/03/15 07:06:36;;;;;;;32.53;20.55;;;6.10;87.10;;;5.48;68.84;100538.41;5001524;28;20046;-83
2023/03/15 07:09:04;;;;;;;31.02;20.08;;;6.10;87.60;;;5.48;68.74;100548.97;5023762;28;20052;-84
2023/03/15 07:11:31;;;;;;;33.38;20.30;;;6.10;87.40;;;5.49;68.16;100551.44;5008869;28;20068;-84
2023/03/15 07:14:00;;;;;;;34.00;19.00;;;6.10;87.30;;;5.49;68.36;100556.72;5006757;28;20537;-83
2023/03/15 07:16:30;;;;;;;40.08;20.85;;;6.20;87.10;;;5.51;68.36;100560.00;5008495;28;20526;-83
2023/03/15 07:18:58;;;;;;;34.08;20.02;;;6.20;87.30;;;5.52;68.39;100560.84;5008720;28;20052;-84
2023/03/15 07:21:26;;;;;;;31.63;20.40;;;6.20;87.30;;;5.54;68.56;100564.13;5002672;28;20506;-83
2023/03/15 07:23:55;;;;;;;32.13;20.35;;;6.20;87.10;;;5.55;68.52;100560.47;5006206;28;20120;-83
2023/03/15 07:26:22;;;;;;;33.47;19.52;;;6.20;87.30;;;5.56;69.09;100572.69;5008065;28;20410;-84
2023/03/15 07:28:49;;;;;;;34.17;18.45;;;6.20;87.60;;;5.56;68.88;100578.84;5006689;28;20060;-84
2023/03/15 07:31:18;;;;;;;31.23;17.40;;;6.20;87.50;;;5.53;68.71;100581.84;5007257;28;20084;-84
2023/03/15 07:33:45;;;;;;;28.92;16.08;;;6.20;87.00;;;5.46;68.41;100585.34;5006332;28;20049;-83
2023/03/15 07:36:12;;;;;;;26.70;15.60;;;6.10;87.40;;;5.48;68.63;100594.75;5008596;28;20053;-84
2023/03/15 07:38:40;;;;;;;24.15;14.48;;;6.10;87.30;;;5.53;68.67;100596.88;5008118;28;20056;-84
2023/03/15 07:41:08;;;;;;;25.15;14.45;;;6.10;87.40;;;5.50;68.78;100600.69;5008753;28;20038;-84
2023/03/15 07:43:38;;;;;;;25.45;13.57;;;6.10;87.10;;;5.53;68.27;100602.19;5019625;28;20053;-84
2023/03/15 07:46:11;;;;;;;23.42;13.35;;;6.20;87.30;;;5.55;68.13;100610.75;5003067;28;20053;-83
2023/03/15 07:48:40;;;;;;;24.58;13.98;;;6.20;87.00;;;5.55;68.06;100614.22;5006527;28;20045;-83
2023/03/15 07:51:07;;;;;;;25.10;14.32;;;6.20;86.90;;;5.59;68.16;100619.97;5019306;28;20441;-83
2023/03/15 07:53:34;;;;;;;20.98;12.18;;;6.20;87.10;;;5.61;68.08;100629.41;5007511;28;20689;-84
2023/03/15 07:58:37;;;;;;;23.00;13.15;;;6.20;86.90;;;5.60;67.96;100642.78;5026891;28;20049;-80
2023/03/15 08:01:05;;;;;;;20.73;12.35;;;6.20;86.90;;;5.62;68.32;100640.81;5043641;28;20638;-81
2023/03/15 08:03:32;;;;;;;21.58;11.45;;;6.20;87.10;;;5.63;68.48;100640.63;5029546;28;20053;-80
2023/03/15 08:06:00;;;;;;;20.88;11.90;;;6.30;87.30;;;5.66;68.28;100650.88;5036748;28;20102;-80
2023/03/15 08:08:28;;;;;;;25.00;12.52;;;6.30;87.20;;;5.67;68.01;100649.88;5026412;28;20045;-81
2023/03/15 08:10:55;;;;;;;20.55;12.43;;;6.30;86.90;;;5.73;68.22;100658.09;5026377;28;20445;-81
2023/03/15 08:13:23;;;;;;;22.08;11.95;;;6.50;87.20;;;5.76;68.37;100666.53;5026375;28;20042;-80
2023/03/15 08:15:50;;;;;;;25.77;13.90;;;6.40;87.20;;;5.73;68.06;100671.34;5009780;28;20577;-80
2023/03/15 08:18:17;;;;;;;27.73;15.55;;;6.40;86.90;;;5.71;68.85;100681.25;5009771;28;20088;-80
2023/03/15 08:20:47;;;;;;;28.70;15.77;;;6.30;87.50;;;5.74;68.75;100680.91;5027010;28;20045;-80
2023/03/15 08:23:16;;;;;;;32.15;16.42;;;6.40;87.60;;;5.75;68.76;100680.72;5024493;28;20144;-80
2023/03/15 08:25:44;;;;;;;32.38;18.05;;;6.40;87.30;;;5.65;67.32;100683.59;5026501;28;20127;-80
2023/03/15 08:28:11;;;;;;;38.03;18.08;;;6.30;86.30;;;5.68;68.12;100688.56;5026507;28;20425;-80
2023/03/15 08:30:39;;;;;;;34.45;19.08;;;6.40;86.70;;;5.68;68.00;100693.84;5026586;28;20832;-80
2023/03/15 08:33:07;;;;;;;34.45;18.25;;;6.40;86.40;;;5.63;67.53;100690.06;5026575;28;20044;-80
2023/03/15 08:35:34;;;;;;;35.95;17.63;;;6.40;86.40;;;5.66;67.81;100701.13;5026124;28;20049;-80
2023/03/15 08:38:02;;;;;;;32.85;16.90;;;6.30;86.60;;;5.67;68.06;100701.97;5024462;28;20047;-80
2023/03/15 08:40:31;;;;;;;29.52;16.80;;;6.30;86.80;;;5.73;68.56;100711.84;5024510;28;20088;-80
2023/03/15 08:42:59;;;;;;;38.75;17.52;;;6.40;87.10;;;5.79;68.76;100712.97;5026487;28;20039;-80
2023/03/15 08:45:27;;;;;;;30.23;14.77;;;6.40;87.10;;;5.82;68.18;100712.63;5011140;28;20050;-80
2023/03/15 08:47:58;;;;;;;28.63;14.25;;;6.50;86.40;;;5.82;67.02;100710.81;5025865;28;20037;-80
2023/03/15 08:50:27;;;;;;;36.85;17.70;;;6.50;85.70;;;5.84;66.23;100708.78;5026033;28;20409;-80
2023/03/15 08:52:54;;;;;;;40.13;18.50;;;6.60;85.10;;;5.90;67.14;100715.22;5026705;28;20048;-80
2023/03/15 08:55:21;;;;;;;49.95;20.23;;;6.60;86.10;;;5.96;68.26;100714.56;5024066;28;20053;-80
2023/03/15 08:57:52;;;;;;;40.13;18.98;;;6.60;87.30;;;5.98;68.53;100715.19;5025619;28;20037;-80
2023/03/15 09:00:21;;;;;;;44.65;21.60;;;6.70;86.90;;;6.07;69.07;100724.75;5026113;28;20128;-80
2023/03/15 09:02:50;;;;;;;37.08;18.58;;;6.70;87.50;;;6.14;68.50;100723.03;5026834;28;20042;-80
2023/03/15 09:05:18;;;;;;;45.20;20.02;;;6.80;86.70;;;6.12;67.57;100724.22;5026363;28;20045;-80
2023/03/15 09:07:46;;;;;;;39.25;19.67;;;6.80;86.30;;;6.12;68.49;100729.53;5025826;28;20052;-80
2023/03/15 09:10:17;;;;;;;36.40;19.17;;;6.90;86.70;;;6.19;68.45;100733.91;5024291;28;20865;-80
2023/03/15 09:12:47;;;;;;;37.45;19.10;;;6.90;86.50;;;6.28;68.12;100733.88;5027508;28;20050;-80
2023/03/15 09:15:16;;;;;;;38.00;18.15;;;7.10;86.40;;;6.35;67.51;100740.13;5026693;28;20116;-80
2023/03/15 09:17:43;;;;;;;37.83;18.05;;;7.10;85.80;;;6.40;67.24;100745.72;5025422;28;20762;-80
2023/03/15 09:20:15;;;;;;;41.05;19.08;;;7.10;85.70;;;6.39;66.79;100738.75;5020640;28;20046;-80
2023/03/15 09:22:43;;;;;;;38.08;19.42;;;7.10;85.00;;;6.40;66.33;100745.72;5027263;28;20067;-80
2023/03/15 09:25:12;;;;;;;38.58;19.58;;;7.10;84.30;;;6.37;66.02;100746.06;5028729;28;20052;-80
2023/03/15 09:27:39;;;;;;;38.60;19.73;;;7.10;84.20;;;6.37;65.28;100756.66;5030465;28;20043;-78
2023/03/15 09:30:08;;;;;;;42.85;19.67;;;7.10;83.30;;;6.35;65.22;100756.03;5029144;28;20041;-79
2023/03/15 09:32:36;;;;;;;44.85;19.65;;;7.10;83.80;;;6.36;65.24;100760.31;5031595;28;20033;-79
2023/03/15 09:35:03;;;;;;;43.53;18.60;;;7.10;84.10;;;6.41;65.83;100765.91;5031472;28;20045;-79
2023/03/15 09:37:31;;;;;;;38.13;17.35;;;7.10;84.70;;;6.42;65.76;100768.38;5030647;28;20059;-80
2023/03/15 09:39:58;;;;;;;32.25;16.52;;;7.10;84.50;;;6.47;65.63;100773.13;5027888;28;20045;-79
2023/03/15 09:42:35;;;;;;;37.25;18.30;;;7.10;84.30;;;6.52;66.28;100772.59;5029624;28;20041;-80
2023/03/15 09:45:13;;;;;;;33.55;17.05;;;7.20;85.40;;;6.54;67.83;100767.94;5030085;28;20045;-80
2023/03/15 09:47:55;;;;;;;35.45;16.48;;;7.20;86.10;;;6.59;66.51;100771.72;5030251;28;20037;-80
2023/03/15 09:50:31;;;;;;;28.25;14.38;;;7.30;85.20;;;6.66;65.10;100774.50;5022327;28;20038;-80
2023/03/15 09:53:04;;;;;;;30.25;15.00;;;7.40;83.80;;;6.68;64.26;100770.63;5025079;28;20049;-80
2023/03/15 09:55:32;;;;;;;32.92;16.30;;;7.40;82.80;;;6.71;64.09;100770.28;5025473;28;20045;-80
2023/03/15 09:58:02;;;;;;;36.05;15.93;;;7.50;82.30;;;6.74;63.66;100769.13;5028020;28;20037;-80
2023/03/15 10:00:37;;;;;;;34.22;14.23;;;7.50;82.20;;;6.70;61.96;100771.31;5027446;28;20072;-80
2023/03/15 10:03:08;;;;;;;28.45;14.65;;;7.50;80.70;;;6.70;62.80;100767.84;5028201;28;20041;-80
2023/03/15 10:05:41;;;;;;;31.80;14.07;;;7.50;81.40;;;6.70;62.90;100768.66;5026360;28;20099;-80
2023/03/15 10:08:14;;;;;;;28.17;13.25;;;7.50;81.50;;;6.73;62.85;100770.09;5025622;28;20056;-80
2023/03/15 10:10:53;;;;;;;29.77;13.13;;;7.50;81.20;;;6.76;62.23;100767.09;5027622;28;20573;-80
2023/03/15 10:13:57;;;;;;;27.73;12.57;;;7.50;80.80;;;6.81;62.65;100770.03;5030432;28;20041;-80
2023/03/15 10:16:39;;;;;;;31.70;13.75;;;7.60;80.80;;;6.82;61.94;100776.16;5026133;28;20177;-80
2023/03/15 10:19:22;;;;;;;25.45;12.65;;;7.60;80.20;;;6.78;61.01;100770.38;5028995;28;20125;-80
2023/03/15 10:22:01;;;;;;;32.55;13.80;;;7.60;79.40;;;6.82;60.79;100771.69;5023250;28;20034;-80
2023/03/15 10:24:38;;;;;;;32.97;14.30;;;7.60;79.00;;;6.83;61.07;100767.22;5025611;28;20133;-80
2023/03/15 10:27:19;;;;;;;32.65;15.07;;;7.60;79.60;;;6.84;62.01;100775.00;5026147;28;20054;-80
2023/03/15 10:29:49;;;;;;;27.88;12.30;;;7.60;80.50;;;6.84;62.29;100779.47;5030512;28;20056;-80
2023/03/15 10:32:18;;;;;;;28.95;11.88;;;7.60;80.70;;;6.83;62.19;100781.31;5023874;28;20129;-80
2023/03/15 10:34:52;;;;;;;26.17;12.48;;;7.50;80.60;;;6.83;62.49;100783.97;5030058;28;20049;-80
2023/03/15 10:37:19;;;;;;;28.35;12.57;;;7.50;80.80;;;6.85;62.30;100778.47;5028562;28;20057;-80
2023/03/15 10:39:51;;;;;;;27.20;12.93;;;7.50;80.90;;;6.86;62.56;100780.13;5030374;28;20045;-80